INDIA METEOROLOGICAL DEPARTMENT, R.M.C. NEW DELHI
Dated:20-10-2017
METARS


Agartala   
VEAT 201400Z 05006KT 2500 -RA SCT010 SCT016 OVC090 24/24 Q1008 NOSIG=
Ahmedabad  
VAAH 201400Z 00000KT 4000 FU NSC 30/17 Q1007 NOSIG=
Amritsar   
VIAR 201400Z VRB02KT 4000 HZ NSC 26/19 Q1009 NOSIG=
Bangalore  
VOBL 201400Z VRB01KT 6000 FEW012 24/21 Q1014 NOSIG=
Baroda     
VABO 201400Z 31004 KT 5000 FU NSC 31/19 Q1006 NOSIG=
Bhaunagar  
VABV 201300Z 05001KT 4000 HZ NSC 32/22 Q1006=
Bhopal     
VABP 201400Z 10003KT 6000 FEW100 28/21 Q1009 NOSIG=
Bhubaneswar
VEBS 201400Z 24012KT 3000 -RA BKN015 FEW030CB OVC090 25/25 Q1004 NOSIG=
Chennai    
VOMM 201400Z 22005KT 6000 FEW020 30/27 Q1007 NOSIG=
Coimbatore 
VOCB 201400Z 20008KT 4000 BR FEW015 27/23 Q1010 NOSIG=
Colombo    
VCBI 201410Z 18006KT 120V250 9999 FEW018 27/24 Q1010 NOSIG=
Delhi      
VIDP 201400Z 03003KT 2500 HZ NSC 29/17 Q1008 NOSIG=
Dehradun   
VIDN 201400Z 06004KT 2000 HZ NSC 25/17 Q1009=
Gauhati    
VEGT 201400Z 02006KT 2000 -RA FEW010 SCT016 OVC080 26/25 Q1011 NOSIG=
Gaya       
VEGY 201400Z NIL=
Hyderabad  
VOHS 201400Z NIL=
Indore     
VAID 201300Z 02004KT 4000 HZ SCT020 SCT025 FEWCB030 30/19 Q1009=
Jaipur     
VIJP 201400Z 00000KT 3000 HZ NSC 30/09 Q1009 NOSIG=
Kochi      
VOCI 201400Z 00000KT 4500 HZ FEW020 28/24 Q1008 TEMPO 4000 HZ=
Kolkata    
VECC 201400Z 14011KT 2800 -TSRA SCT010 SCT015 FEW025CB OVC090 25/24 Q1001 TEMPO TL1500 1500 TSRA=
Kozhikode  
VOCL 201400Z 28003KT 6000 FEW015 27/25 Q1009 NOSIG=
Lucknow    
VILK 201400Z 00000KT 2500 HZ FEW020 SCT100 31/23 Q1007 NOSIG=
Madurai    
VOMD 201400Z 14003KT 6000 SCT018 FEW025CB BKN090 30/24 Q1008 NOSIG=
Mumbai     
VABB 201400Z 22004KT 2200 BR FEW100 30/25 Q1008 NOSIG=
Nagpur     
VANP 201400Z 32005KT 2000 -TSRA SCT020 FEW030CB BKN100 27/25 Q1008 TEMPO 0800 IN TSRA=
Patna      
VEPT 201400Z NIL=
Raipur     
VERP 201330Z 34002KT 6000 FEW025 FEW030CB 28/23 Q1006 NO SIG=
Safdarjung 
VIDD 201300Z 00000KT 1500 FU NSC 31/22 Q1007 NOSIG=
Surat     
VASU 201300Z 33002KT 4000 HZ NSC 30/24 Q1006=
Ranchi     
VERC 201400Z 01009KT 1200 -RA SCT008 SCT012 OVC080 22/22 Q1007 NOSIG=
Trichy     
VOTR 201400Z 16007KT 6000 FEW018 SCT100 31/24 Q1007 BECMG 5000 HZ=
Trivandrum 
VOTV 201400Z 00000KT 3000 HZ SCT015 SCT080 28/26 Q1009 NOSIG=
Udaipur    
VAUD 201400Z 31002KT 5000 NSC 27/15 Q1010 NOSIG=
Varanasi   
VEBN 201400Z VRB01KT 4000 HZ SCT025 29/24 Q1006 NOSIG=
Vizag      
VOVZ 201400Z 28003KT 3500 -DZ/FU FEW016 BKN080 28/25 Q1006 TEMPO 2500 DZ/FU =
Male       
VRMM 201400Z 23012KT 9999 FEW018 BKN270 30/25 Q1010 NOSIG=
Kathmandu  
VNKT 201400Z NIL=
Dhaka      
VGHS 201400Z 11014KT 2000 RA BKN008 FEW025CB OVC080 24/23 Q1008 TEMPO TSRA=
Colombo    
VCBI 201410Z 18006KT 120V250 9999 FEW018 27/24 Q1010 NOSIG=
Karachi    
OPKC 201255Z 23004KT 4000 HZ NSC 32/18 Q1008 NOSIG=
Lahore     
OPLA 201255Z 30003KT 4000 HZ NSC 30/17 Q1008 A29.78 NOSIG=
Leh        
VILH 201230Z 27009KT 6000 FEW070 12/M16 Q1024 NOSIG RMK AC=
Gorakhpur  
VEGK 201230Z 12003KT 6000 FEW030 BKN250 28/24 Q1006 NOSIG=
Agra       
VIAG 201330Z 99902KT 6000 SCT100 30/17 Q1007 NOSIG=
Pune       
VAPO 201330Z 27006KT 6000 FEW030 SCT250 24/18 Q1011 NOSIG=